createdAt,value
2017-05-22T00:01:18.897Z,14.00
2017-05-22T00:03:47.137Z,14.10
2017-05-22T00:06:15.401Z,14.00
2017-05-22T00:08:43.652Z,14.10
2017-05-22T00:11:11.924Z,13.90
2017-05-22T00:13:40.166Z,14.00
2017-05-22T00:16:08.416Z,13.90
2017-05-22T00:18:36.649Z,13.90
2017-05-22T00:21:04.916Z,13.80
2017-05-22T00:23:33.189Z,13.80
2017-05-22T00:26:01.428Z,13.80
2017-05-22T00:28:29.688Z,13.70
2017-05-22T00:30:57.929Z,13.70
2017-05-22T00:33:26.178Z,13.60
2017-05-22T00:35:54.464Z,13.60
2017-05-22T00:38:22.734Z,13.50
2017-05-22T00:40:50.964Z,13.50
2017-05-22T00:43:19.209Z,13.50
2017-05-22T00:45:47.500Z,13.50
2017-05-22T00:48:15.754Z,13.40
2017-05-22T00:50:44.017Z,13.40
2017-05-22T00:53:12.274Z,13.40
2017-05-22T00:55:40.520Z,13.30
2017-05-22T00:58:08.785Z,13.30
2017-05-22T01:00:37.029Z,13.30
2017-05-22T01:03:05.288Z,13.30
2017-05-22T01:05:33.547Z,13.30
2017-05-22T01:08:01.833Z,13.30
2017-05-22T01:10:30.077Z,13.20
2017-05-22T01:12:58.340Z,13.20
2017-05-22T01:15:26.613Z,13.20
2017-05-22T01:17:54.876Z,13.20
2017-05-22T01:20:23.118Z,13.20
2017-05-22T01:22:51.376Z,13.10
2017-05-22T01:25:19.628Z,13.10
2017-05-22T01:27:47.971Z,13.10
2017-05-22T01:30:16.228Z,13.00
2017-05-22T01:32:44.468Z,13.00
2017-05-22T01:35:12.729Z,12.90
2017-05-22T01:37:40.994Z,12.90
2017-05-22T01:40:09.227Z,12.80
2017-05-22T01:42:37.492Z,12.80
2017-05-22T01:45:05.744Z,12.70
2017-05-22T01:47:34.009Z,12.60
2017-05-22T01:50:02.265Z,12.60
2017-05-22T01:52:30.532Z,12.50
2017-05-22T01:54:58.804Z,12.40
2017-05-22T01:57:27.036Z,12.20
2017-05-22T01:59:55.300Z,12.10
2017-05-22T02:02:23.609Z,12.10
2017-05-22T02:04:51.848Z,11.90
2017-05-22T02:07:20.101Z,12.00
2017-05-22T02:09:48.365Z,11.90
2017-05-22T02:12:16.608Z,11.80
2017-05-22T02:14:44.868Z,11.80
2017-05-22T02:17:13.117Z,11.70
2017-05-22T02:19:41.372Z,11.60
2017-05-22T02:22:09.620Z,11.50
2017-05-22T02:24:37.874Z,11.40
2017-05-22T02:27:06.148Z,11.30
2017-05-22T02:29:34.398Z,11.20
2017-05-22T02:32:02.665Z,11.20
2017-05-22T02:34:30.918Z,11.10
2017-05-22T02:36:59.161Z,11.10
2017-05-22T02:39:27.421Z,11.00
2017-05-22T02:41:55.663Z,10.90
2017-05-22T02:44:23.929Z,10.80
2017-05-22T02:46:52.176Z,10.70
2017-05-22T02:49:20.416Z,10.80
2017-05-22T02:51:48.672Z,10.70
2017-05-22T02:54:16.917Z,10.70
2017-05-22T02:56:45.190Z,10.60
2017-05-22T02:59:13.440Z,10.50
2017-05-22T03:01:41.696Z,10.50
2017-05-22T03:04:09.957Z,10.40
2017-05-22T03:06:38.200Z,10.30
2017-05-22T03:09:06.468Z,10.20
2017-05-22T03:11:34.705Z,10.10
2017-05-22T03:14:02.981Z,10.10
2017-05-22T03:16:31.220Z,10.10
2017-05-22T03:18:59.465Z,10.10
2017-05-22T03:21:27.728Z,10.00
2017-05-22T03:23:55.969Z,10.10
2017-05-22T03:26:24.237Z,10.00
2017-05-22T03:28:52.476Z,10.00
2017-05-22T03:31:20.734Z,9.90
2017-05-22T03:33:49.007Z,10.00
2017-05-22T03:36:17.287Z,9.90
2017-05-22T03:38:45.520Z,9.80
2017-05-22T03:41:13.765Z,9.80
2017-05-22T03:43:42.021Z,9.70
2017-05-22T03:46:10.254Z,9.80
2017-05-22T03:48:38.518Z,9.70
2017-05-22T03:51:06.760Z,9.70
2017-05-22T03:53:35.033Z,9.70
2017-05-22T03:56:03.269Z,9.60
2017-05-22T03:58:31.509Z,9.60
2017-05-22T04:00:59.768Z,9.60
2017-05-22T04:03:28.004Z,9.70
2017-05-22T04:05:56.257Z,9.60
2017-05-22T04:08:24.524Z,9.60
2017-05-22T04:10:52.900Z,9.60
2017-05-22T04:13:21.130Z,9.50
2017-05-22T04:15:49.369Z,9.40
2017-05-22T04:18:17.629Z,9.50
2017-05-22T04:20:45.868Z,9.60
2017-05-22T04:23:14.129Z,9.60
2017-05-22T04:25:42.389Z,9.60
2017-05-22T04:28:10.632Z,9.60
2017-05-22T04:30:38.883Z,9.70
2017-05-22T04:33:07.127Z,9.70
2017-05-22T04:35:35.388Z,9.60
2017-05-22T04:38:03.629Z,9.70
2017-05-22T04:40:31.869Z,9.60
2017-05-22T04:43:00.120Z,9.80
2017-05-22T04:45:28.381Z,9.80
2017-05-22T04:47:56.641Z,9.90
2017-05-22T04:50:24.872Z,9.90
2017-05-22T04:52:53.122Z,10.00
2017-05-22T04:55:21.384Z,9.90
2017-05-22T04:57:49.617Z,9.90
2017-05-22T05:00:17.869Z,9.90
2017-05-22T05:02:46.124Z,9.90
2017-05-22T05:05:14.369Z,10.00
2017-05-22T05:07:42.632Z,10.10
2017-05-22T05:10:10.882Z,10.20
2017-05-22T05:12:39.120Z,10.30
2017-05-22T05:15:07.461Z,10.50
2017-05-22T05:17:35.697Z,10.60
2017-05-22T05:20:03.952Z,10.70
2017-05-22T05:22:32.205Z,10.80
2017-05-22T05:25:00.471Z,10.90
2017-05-22T05:27:28.707Z,11.10
2017-05-22T05:29:56.952Z,11.20
2017-05-22T05:32:25.232Z,11.30
2017-05-22T05:34:54.468Z,11.40
2017-05-22T05:37:22.741Z,11.60
2017-05-22T05:39:50.993Z,11.70
2017-05-22T05:42:19.265Z,11.80
2017-05-22T05:44:47.508Z,11.90
2017-05-22T05:47:15.743Z,12.00
2017-05-22T05:49:44.010Z,12.20
2017-05-22T05:52:12.297Z,12.30
2017-05-22T05:54:40.538Z,12.50
2017-05-22T05:57:08.777Z,12.70
2017-05-22T05:59:37.033Z,12.90
2017-05-22T06:02:05.276Z,13.10
2017-05-22T06:04:33.516Z,13.30
2017-05-22T06:07:01.776Z,13.40
2017-05-22T06:09:30.018Z,13.60
2017-05-22T06:11:58.285Z,13.70
2017-05-22T06:14:26.519Z,14.00
2017-05-22T06:16:54.789Z,14.20
2017-05-22T06:19:23.029Z,14.50
2017-05-22T06:21:51.293Z,15.00
2017-05-22T06:24:19.563Z,15.50
2017-05-22T06:26:47.853Z,15.60
2017-05-22T06:29:16.121Z,16.00
2017-05-22T06:31:44.382Z,16.20
2017-05-22T06:34:12.628Z,16.30
2017-05-22T06:36:40.889Z,16.60
2017-05-22T06:39:09.137Z,16.90
2017-05-22T06:41:37.400Z,17.20
2017-05-22T06:44:05.651Z,17.50
2017-05-22T06:46:33.921Z,18.30
2017-05-22T06:49:02.197Z,19.00
2017-05-22T06:51:30.432Z,19.00
2017-05-22T06:53:58.709Z,19.90
2017-05-22T06:56:26.981Z,20.50
2017-05-22T06:58:55.254Z,20.90
2017-05-22T07:01:23.516Z,21.50
2017-05-22T07:03:51.779Z,21.70
2017-05-22T07:06:20.032Z,22.20
2017-05-22T07:08:48.276Z,21.50
2017-05-22T07:11:16.540Z,21.50
2017-05-22T07:13:44.776Z,21.40
2017-05-22T07:16:13.016Z,20.50
2017-05-22T07:18:41.293Z,21.10
2017-05-22T07:21:09.537Z,21.30
2017-05-22T07:23:37.810Z,22.00
2017-05-22T07:26:06.044Z,22.10
2017-05-22T07:28:34.303Z,22.50
2017-05-22T07:31:02.568Z,23.30
2017-05-22T07:33:30.805Z,24.20
2017-05-22T07:35:59.076Z,22.90
2017-05-22T07:38:27.321Z,22.70
2017-05-22T07:40:55.557Z,23.00
2017-05-22T07:43:23.813Z,23.80
2017-05-22T07:45:52.060Z,22.50
2017-05-22T07:48:20.321Z,22.70
2017-05-22T07:50:48.561Z,23.90
2017-05-22T07:53:16.817Z,24.20
2017-05-22T07:55:45.058Z,24.00
2017-05-22T07:58:13.321Z,23.30
2017-05-22T08:00:41.562Z,24.20
2017-05-22T08:03:09.805Z,25.40
2017-05-22T08:05:38.073Z,26.30
2017-05-22T08:08:06.321Z,26.50
2017-05-22T08:10:34.577Z,26.30
2017-05-22T08:13:02.821Z,25.90
2017-05-22T08:15:31.077Z,25.70
2017-05-22T08:17:59.336Z,26.40
2017-05-22T08:20:27.576Z,24.30
2017-05-22T08:22:55.845Z,24.90
2017-05-22T08:25:24.104Z,26.00
2017-05-22T08:27:52.373Z,26.10
2017-05-22T08:30:20.624Z,26.20
2017-05-22T08:32:48.863Z,27.80
2017-05-22T08:35:17.138Z,28.50
2017-05-22T08:37:45.381Z,27.00
2017-05-22T08:40:13.647Z,27.50
2017-05-22T08:42:41.901Z,28.20
2017-05-22T08:45:10.155Z,29.00
2017-05-22T08:47:38.426Z,29.60
2017-05-22T08:50:06.665Z,30.20
2017-05-22T08:52:34.925Z,30.40
2017-05-22T08:55:03.260Z,31.60
2017-05-22T08:57:31.516Z,31.10
2017-05-22T08:59:59.759Z,31.40
2017-05-22T09:02:28.017Z,30.30
2017-05-22T09:04:56.266Z,30.30
2017-05-22T09:07:24.520Z,30.40
2017-05-22T09:09:52.767Z,29.70
2017-05-22T09:12:21.017Z,30.10
2017-05-22T09:14:49.277Z,31.30
2017-05-22T09:17:17.513Z,32.20
2017-05-22T09:19:45.769Z,30.80
2017-05-22T09:22:14.025Z,31.80
2017-05-22T09:24:42.265Z,32.80
2017-05-22T09:27:10.525Z,30.80
2017-05-22T09:29:38.764Z,31.50
2017-05-22T09:32:07.025Z,28.80
2017-05-22T09:34:35.276Z,29.30
2017-05-22T09:37:03.543Z,31.70
2017-05-22T09:39:31.796Z,32.30
2017-05-22T09:42:00.048Z,32.20
2017-05-22T09:44:28.405Z,32.20
2017-05-22T09:46:56.649Z,31.90
2017-05-22T09:49:24.909Z,30.50
2017-05-22T09:51:53.148Z,30.70
2017-05-22T09:54:21.425Z,32.00
2017-05-22T09:56:49.660Z,31.20
2017-05-22T09:59:17.906Z,33.80
2017-05-22T10:01:46.169Z,35.00
2017-05-22T10:04:14.410Z,34.30
2017-05-22T10:06:42.664Z,34.50
2017-05-22T10:09:10.901Z,33.70
2017-05-22T10:11:39.155Z,34.80
2017-05-22T10:14:07.401Z,35.30
2017-05-22T10:16:35.666Z,35.90
2017-05-22T10:19:03.924Z,36.60
2017-05-22T10:21:32.156Z,35.30
2017-05-22T10:24:00.412Z,33.00
2017-05-22T10:26:28.663Z,30.80
2017-05-22T10:28:56.925Z,31.60
2017-05-22T10:31:25.160Z,32.10
2017-05-22T10:33:53.443Z,33.70
2017-05-22T10:36:21.684Z,35.80
2017-05-22T10:38:49.928Z,36.80
2017-05-22T10:41:18.192Z,38.00
2017-05-22T10:43:46.437Z,38.10
2017-05-22T10:46:14.696Z,37.50
2017-05-22T10:48:42.949Z,36.40
2017-05-22T10:51:11.230Z,34.60
2017-05-22T10:53:39.460Z,33.00
2017-05-22T10:56:07.733Z,30.40
2017-05-22T10:58:35.976Z,29.10
2017-05-22T11:01:04.216Z,27.80
2017-05-22T11:03:32.484Z,27.10
2017-05-22T11:06:00.726Z,26.40
2017-05-22T11:08:28.962Z,26.20
2017-05-22T11:10:57.224Z,26.00
2017-05-22T11:13:25.456Z,26.60
2017-05-22T11:15:53.717Z,27.40
2017-05-22T11:18:21.961Z,27.70
2017-05-22T11:20:50.223Z,27.60
2017-05-22T11:23:18.469Z,27.20
2017-05-22T11:25:46.717Z,26.60
2017-05-22T11:28:14.988Z,26.60
2017-05-22T11:30:43.229Z,26.10
2017-05-22T11:33:11.497Z,26.30
2017-05-22T11:35:39.736Z,26.30
2017-05-22T11:38:07.980Z,26.00
2017-05-22T11:40:36.239Z,26.30
2017-05-22T11:43:04.493Z,26.80
2017-05-22T11:45:32.744Z,26.40
2017-05-22T11:48:00.988Z,26.30
2017-05-22T11:50:29.257Z,26.30
2017-05-22T11:52:57.500Z,26.20
2017-05-22T11:55:25.737Z,25.30
2017-05-22T11:57:54.004Z,25.30
2017-05-22T12:00:22.253Z,25.30
2017-05-22T12:02:50.508Z,25.40
2017-05-22T12:05:18.798Z,25.80
2017-05-22T12:07:47.056Z,26.30
2017-05-22T12:10:15.305Z,26.20
2017-05-22T12:12:43.540Z,26.10
2017-05-22T12:15:11.821Z,25.80
2017-05-22T12:17:40.060Z,26.20
2017-05-22T12:20:08.317Z,26.90
2017-05-22T12:22:36.561Z,27.30
2017-05-22T12:25:04.801Z,27.60
2017-05-22T12:27:33.061Z,27.50
2017-05-22T12:30:01.295Z,27.80
2017-05-22T12:32:29.557Z,27.90
2017-05-22T12:34:57.798Z,27.90
2017-05-22T12:37:26.039Z,27.60
2017-05-22T12:39:54.311Z,26.80
2017-05-22T12:42:22.561Z,26.50
2017-05-22T12:44:50.811Z,26.10
2017-05-22T12:47:19.061Z,26.10
2017-05-22T12:49:47.317Z,25.90
2017-05-22T12:52:15.556Z,26.10
2017-05-22T12:54:43.792Z,25.90
2017-05-22T12:57:12.052Z,26.30
2017-05-22T12:59:40.290Z,26.00
2017-05-22T13:02:08.561Z,25.20
2017-05-22T13:04:36.792Z,25.30
2017-05-22T13:07:05.049Z,25.30
2017-05-22T13:09:33.322Z,24.90
2017-05-22T13:12:01.564Z,24.70
2017-05-22T13:14:29.837Z,24.60
2017-05-22T13:16:58.076Z,24.60
2017-05-22T13:19:26.333Z,24.60
2017-05-22T13:21:54.608Z,24.30
2017-05-22T13:24:22.850Z,24.30
2017-05-22T13:26:51.104Z,24.30
2017-05-22T13:29:19.358Z,24.30
2017-05-22T13:31:47.617Z,24.30
2017-05-22T13:34:15.861Z,24.60
2017-05-22T13:36:44.114Z,24.80
2017-05-22T13:39:12.377Z,24.80
2017-05-22T13:41:40.617Z,25.10
2017-05-22T13:44:08.888Z,25.10
2017-05-22T13:46:37.128Z,25.30
2017-05-22T13:49:05.368Z,25.50
2017-05-22T13:51:33.628Z,25.00
2017-05-22T13:54:01.868Z,24.50
2017-05-22T13:56:30.140Z,24.40
2017-05-22T13:58:58.394Z,24.50
2017-05-22T14:01:26.657Z,25.10
2017-05-22T14:03:54.901Z,25.50
2017-05-22T14:06:23.141Z,25.80
2017-05-22T14:08:51.398Z,25.90
2017-05-22T14:11:19.636Z,25.90
2017-05-22T14:13:47.904Z,26.10
2017-05-22T14:16:16.149Z,26.00
2017-05-22T14:18:44.385Z,26.30
2017-05-22T14:21:12.645Z,26.20
2017-05-22T14:23:40.894Z,25.80
2017-05-22T14:26:09.157Z,26.00
2017-05-22T14:28:37.396Z,26.20
2017-05-22T14:31:05.654Z,26.20
2017-05-22T14:33:33.897Z,26.30
2017-05-22T14:36:02.144Z,26.20
2017-05-22T14:38:30.410Z,26.00
2017-05-22T14:40:58.751Z,25.60
2017-05-22T14:43:27.004Z,25.80
2017-05-22T14:45:55.248Z,25.70
2017-05-22T14:48:23.522Z,25.90
2017-05-22T14:50:51.757Z,26.10
2017-05-22T14:53:20.035Z,26.20
2017-05-22T14:55:48.286Z,26.30
2017-05-22T14:58:16.530Z,26.30
2017-05-22T15:00:44.765Z,26.30
2017-05-22T15:03:13.147Z,26.10
2017-05-22T15:05:41.380Z,26.30
2017-05-22T15:08:09.642Z,26.20
2017-05-22T15:10:37.885Z,26.10
2017-05-22T15:13:06.149Z,25.80
2017-05-22T15:15:34.412Z,25.70
2017-05-22T15:18:02.658Z,25.30
2017-05-22T15:20:30.920Z,25.10
2017-05-22T15:22:59.198Z,24.60
2017-05-22T15:25:27.465Z,24.30
2017-05-22T15:27:55.730Z,24.20
2017-05-22T15:30:23.977Z,24.20
2017-05-22T15:32:52.242Z,24.10
2017-05-22T15:35:20.492Z,24.10
2017-05-22T15:37:48.760Z,23.90
2017-05-22T15:40:17.024Z,23.70
2017-05-22T15:42:45.269Z,23.50
2017-05-22T15:45:13.541Z,23.50
2017-05-22T15:47:41.773Z,23.70
2017-05-22T15:50:10.050Z,23.80
2017-05-22T15:52:38.296Z,24.00
2017-05-22T15:55:06.562Z,23.80
2017-05-22T15:57:34.865Z,23.60
2017-05-22T16:00:03.100Z,23.50
2017-05-22T16:02:31.353Z,23.20
2017-05-22T16:04:58.836Z,23.20
2017-05-22T16:07:27.101Z,22.70
2017-05-22T16:09:55.354Z,22.80
2017-05-22T16:12:23.611Z,22.90
2017-05-22T16:14:51.873Z,23.00
2017-05-22T16:17:20.121Z,23.20
2017-05-22T16:19:48.382Z,23.40
2017-05-22T16:22:16.631Z,23.50
2017-05-22T16:24:44.904Z,23.30
2017-05-22T16:27:13.153Z,23.40
2017-05-22T16:29:41.407Z,23.60
2017-05-22T16:32:09.682Z,23.40
2017-05-22T16:34:37.922Z,23.40
2017-05-22T16:37:06.192Z,23.30
2017-05-22T16:39:34.444Z,23.10
2017-05-22T16:42:02.689Z,23.10
2017-05-22T16:44:30.952Z,23.10
2017-05-22T16:46:59.201Z,23.10
2017-05-22T16:49:27.473Z,23.10
2017-05-22T16:51:55.716Z,23.10
2017-05-22T16:54:23.998Z,23.00
2017-05-22T16:56:52.248Z,22.90
2017-05-22T16:59:20.519Z,22.80
2017-05-22T17:01:48.773Z,22.80
2017-05-22T17:04:18.074Z,22.80
2017-05-22T17:06:46.349Z,22.70
2017-05-22T17:09:14.816Z,22.70
2017-05-22T17:11:43.076Z,22.50
2017-05-22T17:14:11.312Z,22.40
2017-05-22T17:16:39.594Z,22.30
2017-05-22T17:19:07.846Z,22.20
2017-05-22T17:21:36.097Z,22.10
2017-05-22T17:24:04.373Z,22.00
2017-05-22T17:26:32.616Z,22.10
2017-05-22T17:29:00.865Z,21.90
2017-05-22T17:31:29.143Z,21.80
2017-05-22T17:33:57.388Z,21.70
2017-05-22T17:36:25.661Z,21.70
2017-05-22T17:38:53.920Z,21.40
2017-05-22T17:41:22.184Z,21.40
2017-05-22T17:43:50.440Z,21.40
2017-05-22T17:46:18.680Z,21.30
2017-05-22T17:48:46.949Z,21.20
2017-05-22T17:51:15.209Z,21.00
2017-05-22T17:53:43.496Z,20.90
2017-05-22T17:56:11.749Z,20.80
2017-05-22T17:58:39.999Z,20.70
2017-05-22T18:01:08.274Z,20.70
2017-05-22T18:03:36.533Z,20.70
2017-05-22T18:06:04.796Z,20.50
2017-05-22T18:08:33.042Z,20.40
2017-05-22T18:11:01.305Z,20.40
2017-05-22T18:13:29.551Z,20.20
2017-05-22T18:15:57.813Z,20.20
2017-05-22T18:18:26.078Z,20.00
2017-05-22T18:20:54.320Z,19.90
2017-05-22T18:23:22.565Z,19.80
2017-05-22T18:25:50.841Z,19.70
2017-05-22T18:28:19.125Z,19.60
2017-05-22T18:30:47.387Z,19.50
2017-05-22T18:33:15.643Z,19.40
2017-05-22T18:35:43.910Z,19.40
2017-05-22T18:38:12.179Z,19.30
2017-05-22T18:40:40.433Z,19.10
2017-05-22T18:43:08.705Z,18.90
2017-05-22T18:45:36.952Z,18.80
2017-05-22T18:48:05.230Z,18.70
2017-05-22T18:50:33.485Z,18.70
2017-05-22T18:53:03.454Z,18.60
2017-05-22T18:55:31.736Z,18.50
2017-05-22T18:57:59.994Z,18.40
2017-05-22T19:00:28.268Z,18.30
2017-05-22T19:02:56.513Z,18.20
2017-05-22T19:05:24.824Z,18.10
2017-05-22T19:07:53.122Z,18.10
2017-05-22T19:10:21.373Z,18.00
2017-05-22T19:12:49.649Z,17.90
2017-05-22T19:15:17.910Z,17.80
2017-05-22T19:17:46.157Z,17.70
2017-05-22T19:20:14.421Z,17.60
2017-05-22T19:22:42.914Z,17.60
2017-05-22T19:25:11.154Z,17.50
2017-05-22T19:27:39.407Z,17.40
2017-05-22T19:30:07.673Z,17.30
2017-05-22T19:32:35.934Z,17.20
2017-05-22T19:35:04.211Z,17.10
2017-05-22T19:37:32.480Z,17.00
2017-05-22T19:40:00.740Z,16.90
2017-05-22T19:42:29.029Z,16.80
2017-05-22T19:44:57.331Z,16.80
2017-05-22T19:47:25.605Z,16.80
2017-05-22T19:49:53.857Z,16.70
2017-05-22T19:52:22.134Z,16.60
2017-05-22T19:54:50.389Z,16.60
2017-05-22T19:57:18.676Z,16.50
2017-05-22T19:59:46.920Z,16.50
2017-05-22T20:02:15.177Z,16.40
2017-05-22T20:04:43.444Z,16.30
2017-05-22T20:07:11.757Z,16.30
2017-05-22T20:09:40.032Z,16.20
2017-05-22T20:12:08.273Z,16.20
2017-05-22T20:14:36.556Z,16.10
2017-05-22T20:17:04.799Z,16.00
2017-05-22T20:19:33.074Z,16.00
2017-05-22T20:22:01.356Z,16.00
2017-05-22T20:24:29.610Z,15.90
2017-05-22T20:26:57.893Z,15.80
2017-05-22T20:29:26.149Z,15.80
2017-05-22T20:31:54.398Z,15.70
2017-05-22T20:34:22.669Z,15.70
2017-05-22T20:36:50.919Z,15.70
2017-05-22T20:39:19.183Z,15.60
2017-05-22T20:41:47.453Z,15.50
2017-05-22T20:44:15.700Z,15.60
2017-05-22T20:46:43.974Z,15.50
2017-05-22T20:49:12.238Z,15.40
2017-05-22T20:51:40.506Z,15.40
2017-05-22T20:54:08.784Z,15.40
2017-05-22T20:56:37.042Z,15.30
2017-05-22T20:59:05.312Z,15.20
2017-05-22T21:01:33.568Z,15.20
2017-05-22T21:04:01.837Z,15.10
2017-05-22T21:06:30.085Z,15.00
2017-05-22T21:08:58.330Z,15.00
2017-05-22T21:11:26.605Z,15.00
2017-05-22T21:13:54.849Z,14.90
2017-05-22T21:16:23.116Z,14.90
2017-05-22T21:18:51.372Z,14.90
2017-05-22T21:21:19.608Z,14.80
2017-05-22T21:23:47.867Z,14.70
2017-05-22T21:26:16.138Z,14.70
2017-05-22T21:28:44.410Z,14.70
2017-05-22T21:31:12.661Z,14.60
2017-05-22T21:33:41.683Z,14.50
2017-05-22T21:36:09.925Z,14.50
2017-05-22T21:38:38.270Z,14.40
2017-05-22T21:41:06.511Z,14.30
2017-05-22T21:43:34.760Z,14.40
2017-05-22T21:46:03.035Z,14.30
2017-05-22T21:48:31.283Z,14.30
2017-05-22T21:50:59.565Z,14.30
2017-05-22T21:53:27.809Z,14.30
2017-05-22T21:55:56.057Z,14.30
2017-05-22T21:58:24.322Z,14.20
2017-05-22T22:00:52.567Z,14.20
2017-05-22T22:03:20.829Z,14.20
2017-05-22T22:05:49.072Z,14.20
2017-05-22T22:08:17.345Z,14.20
2017-05-22T22:10:45.592Z,14.10
2017-05-22T22:13:13.841Z,14.00
2017-05-22T22:15:42.119Z,14.10
2017-05-22T22:18:10.364Z,14.10
2017-05-22T22:20:38.708Z,14.00
2017-05-22T22:23:06.948Z,13.90
2017-05-22T22:25:35.197Z,13.90
2017-05-22T22:28:03.469Z,13.80
2017-05-22T22:30:31.712Z,13.80
2017-05-22T22:32:59.966Z,13.80
2017-05-22T22:35:28.244Z,13.70
2017-05-22T22:37:56.504Z,13.70
2017-05-22T22:40:24.774Z,13.70
2017-05-22T22:42:53.021Z,13.70
2017-05-22T22:45:21.301Z,13.70
2017-05-22T22:47:49.557Z,13.60
2017-05-22T22:50:17.804Z,13.60
2017-05-22T22:52:46.085Z,13.60
2017-05-22T22:55:14.348Z,13.50
2017-05-22T22:57:42.620Z,13.50
2017-05-22T23:00:10.895Z,13.50
2017-05-22T23:02:39.149Z,13.40
2017-05-22T23:05:07.473Z,13.40
2017-05-22T23:07:35.722Z,13.30
2017-05-22T23:10:04.002Z,13.30
2017-05-22T23:12:32.247Z,13.20
2017-05-22T23:15:00.512Z,13.20
2017-05-22T23:17:28.763Z,13.20
2017-05-22T23:19:57.037Z,13.30
2017-05-22T23:22:25.288Z,13.20
2017-05-22T23:24:53.600Z,13.10
2017-05-22T23:27:21.854Z,13.00
2017-05-22T23:29:50.114Z,13.00
2017-05-22T23:32:18.385Z,13.00
2017-05-22T23:34:46.637Z,13.00
2017-05-22T23:37:14.914Z,13.10
2017-05-22T23:39:43.164Z,13.00
2017-05-22T23:42:11.433Z,13.00
2017-05-22T23:44:39.679Z,12.90
2017-05-22T23:47:07.940Z,12.90
2017-05-22T23:49:36.221Z,12.90
2017-05-22T23:52:04.460Z,12.90
2017-05-22T23:54:32.732Z,12.90
2017-05-22T23:57:00.980Z,12.80
2017-05-22T23:59:29.253Z,12.90
